createdAt,value
2018-12-30T00:04:24.075Z,101916.95
2018-12-30T00:07:14.016Z,101918.19
2018-12-30T00:09:56.269Z,101907.83
2018-12-30T00:12:46.017Z,101947.23
2018-12-30T00:15:28.992Z,101958.87
2018-12-30T00:18:18.700Z,101961.57
2018-12-30T00:21:08.799Z,101980.55
2018-12-30T00:23:52.342Z,101966.61
2018-12-30T00:26:35.016Z,101974.66
2018-12-30T00:29:20.097Z,101991.56
2018-12-30T00:32:09.765Z,102017.36
2018-12-30T00:34:54.002Z,102031.25
2018-12-30T00:37:43.710Z,102017.20
2018-12-30T00:40:25.804Z,102012.59
2018-12-30T00:43:17.218Z,102034.88
2018-12-30T00:48:53.134Z,102072.91
2018-12-30T00:51:42.686Z,102083.43
2018-12-30T00:54:25.028Z,102092.45
2018-12-30T00:57:15.555Z,102082.86
2018-12-30T01:00:05.973Z,102092.66
2018-12-30T01:02:47.854Z,102134.76
2018-12-30T01:05:39.288Z,102124.09
2018-12-30T01:08:21.819Z,102139.77
2018-12-30T01:11:11.494Z,102147.63
2018-12-30T01:14:01.186Z,102152.23
2018-12-30T01:16:43.904Z,102138.62
2018-12-30T01:19:33.609Z,102143.27
2018-12-30T01:22:16.281Z,102177.02
2018-12-30T01:25:06.416Z,102173.45
2018-12-30T01:27:50.383Z,102157.91
2018-12-30T01:30:32.915Z,102168.34
2018-12-30T01:33:41.602Z,102202.66
2018-12-30T01:36:24.446Z,102183.38
2018-12-30T01:42:15.773Z,102194.32
2018-12-30T01:45:05.530Z,102207.02
2018-12-30T01:47:47.167Z,102218.80
2018-12-30T01:50:37.048Z,102227.45
2018-12-30T01:53:21.452Z,102263.92
2018-12-30T01:56:10.869Z,102233.75
2018-12-30T01:58:53.342Z,102253.88
2018-12-30T02:04:43.892Z,102289.97
2018-12-30T02:07:33.435Z,102277.30
2018-12-30T02:10:17.056Z,102304.30
2018-12-30T02:13:06.761Z,102290.84
2018-12-30T02:15:49.745Z,102328.95
2018-12-30T02:18:41.137Z,102331.88
2018-12-30T02:21:23.329Z,102308.09
2018-12-30T02:24:12.998Z,102319.69
2018-12-30T02:26:55.668Z,102323.91
2018-12-30T02:29:38.045Z,102339.41
2018-12-30T02:35:15.964Z,102359.92
2018-12-30T02:38:05.653Z,102348.20
2018-12-30T02:40:51.750Z,102348.13
2018-12-30T02:43:41.423Z,102384.67
2018-12-30T02:46:25.413Z,102389.84
2018-12-30T02:49:15.058Z,102361.09
2018-12-30T02:51:57.364Z,102372.69
2018-12-30T02:54:47.750Z,102393.17
2018-12-30T02:57:30.097Z,102378.17
2018-12-30T03:03:21.549Z,102410.42
2018-12-30T03:06:11.188Z,102414.29
2018-12-30T03:08:53.564Z,102402.97
2018-12-30T03:11:43.272Z,102391.91
2018-12-30T03:14:25.848Z,102398.33
2018-12-30T03:17:15.471Z,102399.30
2018-12-30T03:19:58.399Z,102392.73
2018-12-30T03:22:48.354Z,102427.05
2018-12-30T03:25:31.179Z,102436.76
2018-12-30T03:28:20.777Z,102435.95
2018-12-30T03:31:03.140Z,102409.26
2018-12-30T03:33:52.784Z,102433.40
2018-12-30T03:36:35.140Z,102405.89
2018-12-30T03:39:24.743Z,102415.38
2018-12-30T03:42:07.220Z,102409.22
2018-12-30T03:47:58.290Z,102424.84
2018-12-30T03:53:49.200Z,102415.59
2018-12-30T03:56:38.893Z,102418.20
2018-12-30T03:59:21.321Z,102414.42
2018-12-30T04:02:10.983Z,102427.81
2018-12-30T04:04:53.255Z,102433.81
2018-12-30T04:08:02.365Z,102434.30
2018-12-30T04:10:44.454Z,102439.41
2018-12-30T04:13:34.130Z,102463.03
2018-12-30T04:16:16.484Z,102451.71
2018-12-30T04:19:06.230Z,102475.85
2018-12-30T04:21:48.036Z,102486.05
2018-12-30T04:24:18.357Z,102498.59
2018-12-30T04:29:43.753Z,102515.80
2018-12-30T04:32:33.850Z,102520.51
2018-12-30T04:35:16.722Z,102506.06
2018-12-30T04:38:06.382Z,102523.59
2018-12-30T04:40:56.366Z,102541.30
2018-12-30T04:43:40.275Z,102547.43
2018-12-30T04:46:29.960Z,102515.44
2018-12-30T04:49:12.253Z,102525.14
2018-12-30T04:52:02.060Z,102525.95
2018-12-30T04:54:45.871Z,102546.00
2018-12-30T04:57:27.715Z,102527.20
2018-12-30T05:00:17.351Z,102545.55
2018-12-30T05:02:59.903Z,102534.61
2018-12-30T05:05:49.587Z,102537.69
2018-12-30T05:08:32.202Z,102538.41
2018-12-30T05:11:21.900Z,102565.77
2018-12-30T05:14:11.633Z,102542.11
2018-12-30T05:16:54.072Z,102561.11
2018-12-30T05:19:43.726Z,102577.22
2018-12-30T05:22:33.628Z,102549.09
2018-12-30T05:25:17.396Z,102572.70
2018-12-30T05:28:00.171Z,102580.59
2018-12-30T05:30:42.102Z,102581.28
2018-12-30T05:33:31.804Z,102564.30
2018-12-30T05:36:03.030Z,102582.30
2018-12-30T05:38:52.194Z,102583.95
2018-12-30T05:41:34.946Z,102600.70
2018-12-30T05:44:24.560Z,102594.52
2018-12-30T05:47:09.816Z,102575.76
2018-12-30T05:49:59.804Z,102599.23
2018-12-30T05:52:42.712Z,102584.82
2018-12-30T05:55:32.433Z,102595.10
2018-12-30T05:58:16.683Z,102622.40
2018-12-30T06:01:06.425Z,102622.73
2018-12-30T06:03:49.022Z,102602.45
2018-12-30T06:06:39.009Z,102610.55
2018-12-30T06:09:21.055Z,102615.50
2018-12-30T06:12:10.729Z,102626.77
2018-12-30T06:17:49.735Z,102639.60
2018-12-30T06:20:32.168Z,102664.14
2018-12-30T06:23:21.886Z,102635.98
2018-12-30T06:26:04.667Z,102638.95
2018-12-30T06:28:54.709Z,102670.69
2018-12-30T06:31:36.804Z,102673.77
2018-12-30T06:34:07.180Z,102678.25
2018-12-30T06:36:56.862Z,102680.20
2018-12-30T06:39:46.545Z,102674.13
2018-12-30T06:42:28.951Z,102686.42
2018-12-30T06:45:18.632Z,102699.13
2018-12-30T06:48:01.407Z,102681.25
2018-12-30T06:50:51.127Z,102682.30
2018-12-30T06:53:34.889Z,102707.18
2018-12-30T06:56:25.004Z,102709.86
2018-12-30T06:59:14.668Z,102692.62
2018-12-30T07:02:04.354Z,102695.34
2018-12-30T07:04:46.771Z,102714.87
2018-12-30T07:10:25.867Z,102713.03
2018-12-30T07:13:15.520Z,102698.41
2018-12-30T07:15:57.876Z,102692.51
2018-12-30T07:18:47.249Z,102721.97
2018-12-30T07:21:29.821Z,102725.49
2018-12-30T07:24:19.209Z,102731.34
2018-12-30T07:27:00.989Z,102703.12
2018-12-30T07:29:51.027Z,102737.16
2018-12-30T07:32:34.641Z,102719.90
2018-12-30T07:35:24.186Z,102723.75
2018-12-30T07:38:06.858Z,102751.03
2018-12-30T07:40:49.483Z,102754.90
2018-12-30T07:43:39.070Z,102755.78
2018-12-30T07:46:21.994Z,102746.92
2018-12-30T07:49:11.664Z,102750.82
2018-12-30T07:52:01.348Z,102756.08
2018-12-30T07:54:44.335Z,102727.20
2018-12-30T07:57:33.747Z,102756.92
2018-12-30T08:00:17.043Z,102731.33
2018-12-30T08:03:06.463Z,102737.13
2018-12-30T08:05:48.793Z,102738.48
2018-12-30T08:08:38.164Z,102759.06
2018-12-30T08:11:21.682Z,102745.19
2018-12-30T08:14:24.983Z,102750.84
2018-12-30T08:16:55.645Z,102779.17
2018-12-30T08:19:45.095Z,102761.42
2018-12-30T08:22:27.227Z,102751.11
2018-12-30T08:25:16.619Z,102752.51
2018-12-30T08:27:58.179Z,102778.43
2018-12-30T08:30:47.570Z,102781.68
2018-12-30T08:33:30.482Z,102780.91
2018-12-30T08:36:20.735Z,102775.39
2018-12-30T08:39:02.295Z,102772.47
2018-12-30T08:41:51.699Z,102771.27
2018-12-30T08:44:34.176Z,102764.59
2018-12-30T08:47:23.642Z,102748.89
2018-12-30T08:50:07.997Z,102754.92
2018-12-30T08:52:57.400Z,102755.05
2018-12-30T08:55:41.266Z,102757.81
2018-12-30T08:58:12.189Z,102787.77
2018-12-30T09:01:01.556Z,102791.77
2018-12-30T09:03:51.183Z,102787.89
2018-12-30T09:06:33.736Z,102786.81
2018-12-30T09:12:11.985Z,102792.63
2018-12-30T09:15:01.299Z,102775.89
2018-12-30T09:17:44.585Z,102799.28
2018-12-30T09:20:36.027Z,102798.69
2018-12-30T09:23:19.322Z,102793.13
2018-12-30T09:26:09.131Z,102798.14
2018-12-30T09:28:53.779Z,102780.89
2018-12-30T09:31:43.971Z,102800.19
2018-12-30T09:34:14.850Z,102804.59
2018-12-30T09:37:04.784Z,102807.61
2018-12-30T09:39:53.854Z,102810.09
2018-12-30T09:42:35.842Z,102820.21
2018-12-30T09:48:22.823Z,102803.50
2018-12-30T09:51:05.095Z,102824.99
2018-12-30T09:53:54.858Z,102798.42
2018-12-30T09:56:44.701Z,102814.83
2018-12-30T09:59:36.628Z,102810.35
2018-12-30T10:02:20.285Z,102788.34
2018-12-30T10:05:10.076Z,102797.09
2018-12-30T10:07:52.095Z,102811.42
2018-12-30T10:10:43.843Z,102786.73
2018-12-30T10:13:14.430Z,102801.81
2018-12-30T10:16:04.129Z,102778.75
2018-12-30T10:18:54.351Z,102830.13
2018-12-30T10:21:36.655Z,102814.59
2018-12-30T10:24:26.436Z,102806.24
2018-12-30T10:27:09.542Z,102804.21
2018-12-30T10:29:58.956Z,102835.70
2018-12-30T10:32:41.562Z,102833.53
2018-12-30T10:35:32.746Z,102815.95
2018-12-30T10:38:22.549Z,102839.19
2018-12-30T10:41:05.498Z,102842.20
2018-12-30T10:43:54.820Z,102839.61
2018-12-30T10:46:44.568Z,102846.16
2018-12-30T10:49:26.437Z,102837.23
2018-12-30T10:52:31.045Z,102814.87
2018-12-30T10:55:00.634Z,102837.28
2018-12-30T10:57:50.298Z,102833.86
2018-12-30T11:00:34.284Z,102840.46
2018-12-30T11:03:23.698Z,102810.97
2018-12-30T11:06:06.003Z,102805.44
2018-12-30T11:08:55.453Z,102836.11
2018-12-30T11:11:44.960Z,102814.91
2018-12-30T11:14:34.699Z,102811.30
2018-12-30T11:17:16.677Z,102822.97
2018-12-30T11:20:06.434Z,102822.55
2018-12-30T11:22:48.530Z,102829.22
2018-12-30T11:25:19.661Z,102825.00
2018-12-30T11:28:09.189Z,102829.69
2018-12-30T11:30:58.677Z,102825.55
2018-12-30T11:33:41.910Z,102829.03
2018-12-30T11:39:22.122Z,102840.20
2018-12-30T11:42:11.795Z,102812.38
2018-12-30T11:44:53.821Z,102810.67
2018-12-30T11:53:36.687Z,102801.36
2018-12-30T11:56:26.063Z,102792.28
2018-12-30T11:59:09.134Z,102822.87
2018-12-30T12:01:58.580Z,102823.48
2018-12-30T12:04:40.302Z,102807.75
2018-12-30T12:07:30.009Z,102836.34
2018-12-30T12:10:15.757Z,102843.06
2018-12-30T12:13:05.144Z,102838.86
2018-12-30T12:15:47.623Z,102838.99
2018-12-30T12:18:17.849Z,102846.84
2018-12-30T12:21:07.386Z,102848.91
2018-12-30T12:23:53.766Z,102830.16
2018-12-30T12:26:35.439Z,102817.22
2018-12-30T12:29:24.839Z,102819.84
2018-12-30T12:32:11.236Z,102838.58
2018-12-30T12:35:00.634Z,102842.28
2018-12-30T12:37:42.711Z,102837.78
2018-12-30T12:40:26.384Z,102817.83
2018-12-30T12:43:16.191Z,102842.77
2018-12-30T12:45:57.932Z,102847.21
2018-12-30T12:48:28.282Z,102856.63
2018-12-30T12:51:17.958Z,102825.03
2018-12-30T12:54:07.694Z,102851.14
2018-12-30T12:56:57.913Z,102823.19
2018-12-30T12:59:42.368Z,102832.38
2018-12-30T13:02:32.204Z,102807.73
2018-12-30T13:05:14.345Z,102835.34
2018-12-30T13:08:24.660Z,102835.15
2018-12-30T13:11:08.760Z,102829.09
2018-12-30T13:13:58.485Z,102836.46
2018-12-30T13:16:48.329Z,102805.83
2018-12-30T13:19:38.052Z,102807.83
2018-12-30T13:22:20.497Z,102842.20
2018-12-30T13:25:09.965Z,102852.98
2018-12-30T13:27:52.580Z,102858.77
2018-12-30T13:30:42.371Z,102849.86
2018-12-30T13:33:24.566Z,102851.08
2018-12-30T13:36:09.081Z,102861.95
2018-12-30T13:38:58.757Z,102843.15
2018-12-30T13:41:41.105Z,102872.36
2018-12-30T13:44:30.497Z,102848.19
2018-12-30T13:47:17.444Z,102836.44
2018-12-30T13:50:09.199Z,102847.75
2018-12-30T13:52:51.417Z,102824.39
2018-12-30T13:55:41.121Z,102818.33
2018-12-30T13:58:23.351Z,102815.00
2018-12-30T14:00:54.081Z,102842.98
2018-12-30T14:03:43.862Z,102835.73
2018-12-30T14:06:33.266Z,102841.02
2018-12-30T14:11:54.836Z,102845.91
2018-12-30T14:14:45.093Z,102848.80
2018-12-30T14:20:11.053Z,102842.58
2018-12-30T14:23:01.035Z,102865.93
2018-12-30T14:25:31.331Z,102864.47
2018-12-30T14:28:21.042Z,102872.36
2018-12-30T14:31:03.654Z,102853.72
2018-12-30T14:33:45.642Z,102883.27
2018-12-30T14:36:35.182Z,102860.22
2018-12-30T14:39:17.592Z,102855.98
2018-12-30T14:42:27.915Z,102881.47
2018-12-30T14:44:59.536Z,102888.70
2018-12-30T14:47:29.882Z,102904.33
2018-12-30T14:50:38.374Z,102885.98
2018-12-30T14:56:34.697Z,102888.84
2018-12-30T14:59:43.609Z,102896.08
2018-12-30T15:02:25.359Z,102924.42
2018-12-30T15:08:02.975Z,102924.94
2018-12-30T15:13:41.088Z,102923.88
2018-12-30T15:16:30.738Z,102902.38
2018-12-30T15:19:01.107Z,102933.03
2018-12-30T15:21:50.765Z,102895.80
2018-12-30T15:24:40.407Z,102900.05
2018-12-30T15:27:22.415Z,102906.88
2018-12-30T15:30:12.043Z,102905.23
2018-12-30T15:32:54.751Z,102904.19
2018-12-30T15:35:36.921Z,102936.27
2018-12-30T15:38:27.240Z,102911.17
2018-12-30T15:41:09.870Z,102940.25
2018-12-30T15:43:59.869Z,102932.59
2018-12-30T15:46:42.370Z,102905.06
2018-12-30T15:49:34.841Z,102925.39
2018-12-30T15:52:24.660Z,102934.20
2018-12-30T15:55:19.358Z,102934.27
2018-12-30T15:58:00.120Z,102908.00
2018-12-30T16:00:51.844Z,102904.13
2018-12-30T16:03:41.289Z,102903.34
2018-12-30T16:06:23.214Z,102936.13
2018-12-30T16:09:13.039Z,102909.00
2018-12-30T16:11:55.794Z,102946.46
2018-12-30T16:14:45.493Z,102924.80
2018-12-30T16:20:30.456Z,102938.87
2018-12-30T16:23:16.917Z,102931.55
2018-12-30T16:25:47.207Z,102964.48
2018-12-30T16:28:36.549Z,102971.77
2018-12-30T16:31:06.816Z,102980.77
2018-12-30T16:36:59.228Z,102953.27
2018-12-30T16:39:48.901Z,102982.94
2018-12-30T16:42:38.511Z,102982.66
2018-12-30T16:45:20.597Z,102958.21
2018-12-30T16:48:10.224Z,102965.67
2018-12-30T16:50:52.549Z,102987.91
2018-12-30T16:53:42.401Z,102994.67
2018-12-30T16:56:25.930Z,102978.68
2018-12-30T16:59:36.406Z,103002.17
2018-12-30T17:02:19.126Z,103006.96
2018-12-30T17:08:05.676Z,102976.41
2018-12-30T17:10:48.353Z,102975.84
2018-12-30T17:16:38.857Z,102990.34
2018-12-30T17:22:29.612Z,103002.97
2018-12-30T17:25:19.239Z,103004.28
2018-12-30T17:28:01.860Z,102980.34
2018-12-30T17:33:56.139Z,102974.88
2018-12-30T17:36:58.951Z,102983.48
2018-12-30T17:39:30.679Z,102978.13
2018-12-30T17:42:20.087Z,103000.72
2018-12-30T17:45:02.382Z,103004.63
2018-12-30T17:47:52.063Z,102980.02
2018-12-30T17:50:33.697Z,103001.16
2018-12-30T17:53:23.348Z,103005.77
2018-12-30T17:56:07.299Z,102991.99
2018-12-30T18:01:45.343Z,103026.41
2018-12-30T18:10:26.415Z,102990.95
2018-12-30T18:13:18.227Z,102994.53
2018-12-30T18:15:59.793Z,103020.83
2018-12-30T18:24:40.173Z,103006.58
2018-12-30T18:30:31.284Z,103000.19
2018-12-30T18:36:22.700Z,103003.80
2018-12-30T18:39:12.353Z,103008.69
2018-12-30T18:41:54.199Z,103008.59
2018-12-30T18:50:45.304Z,102986.23
2018-12-30T18:53:35.525Z,103017.36
2018-12-30T18:56:17.769Z,103001.06
2018-12-30T18:59:07.204Z,103003.98
2018-12-30T19:01:49.339Z,103027.64
2018-12-30T19:04:38.702Z,103008.66
2018-12-30T19:07:22.626Z,103007.89
2018-12-30T19:10:12.568Z,103023.74
2018-12-30T19:13:02.412Z,102996.58
2018-12-30T19:15:43.934Z,103010.16
2018-12-30T19:21:31.422Z,103014.16
2018-12-30T19:24:13.999Z,103009.23
2018-12-30T19:27:24.003Z,103025.36
2018-12-30T19:30:07.130Z,103044.66
2018-12-30T19:32:56.757Z,103044.33
2018-12-30T19:35:39.465Z,103012.03
2018-12-30T19:38:09.716Z,103027.47
2018-12-30T19:41:01.440Z,103000.02
2018-12-30T19:43:43.760Z,103029.14
2018-12-30T19:46:35.154Z,103025.46
2018-12-30T19:49:17.273Z,103013.81
2018-12-30T19:52:06.939Z,102998.48
2018-12-30T19:54:37.188Z,103026.84
2018-12-30T20:00:23.126Z,103023.83
2018-12-30T20:03:06.259Z,103026.16
2018-12-30T20:05:49.085Z,103000.41
2018-12-30T20:08:31.472Z,103012.72
2018-12-30T20:11:34.643Z,103017.33
2018-12-30T20:14:04.803Z,103000.98
2018-12-30T20:16:54.510Z,102993.61
2018-12-30T20:19:36.998Z,103018.12
2018-12-30T20:22:26.623Z,102993.98
2018-12-30T20:25:08.788Z,103023.34
2018-12-30T20:27:58.482Z,102992.23
2018-12-30T20:30:42.549Z,102996.09
2018-12-30T20:36:40.470Z,102981.72
2018-12-30T20:39:30.604Z,102974.30
2018-12-30T20:42:14.284Z,103002.98
2018-12-30T20:47:52.700Z,103004.91
2018-12-30T20:50:42.433Z,102993.78
2018-12-30T20:53:24.315Z,102981.04
2018-12-30T20:56:13.865Z,103005.23
2018-12-30T20:58:55.588Z,103005.41
2018-12-30T21:01:59.101Z,102996.13
2018-12-30T21:04:28.779Z,103015.56
2018-12-30T21:07:18.501Z,103019.69
2018-12-30T21:10:00.806Z,102995.93
2018-12-30T21:15:38.605Z,103011.94
2018-12-30T21:18:28.164Z,103044.29
2018-12-30T21:21:17.753Z,103039.04
2018-12-30T21:24:01.510Z,103033.30
2018-12-30T21:26:31.989Z,103032.77
2018-12-30T21:29:36.777Z,103004.88
2018-12-30T21:37:52.972Z,103000.67
2018-12-30T21:40:42.380Z,103016.78
2018-12-30T21:43:24.798Z,102993.59
2018-12-30T21:49:17.917Z,103012.90
2018-12-30T21:52:07.378Z,102986.29
2018-12-30T21:54:49.789Z,102979.75
2018-12-30T22:00:40.499Z,103006.06
2018-12-30T22:03:30.190Z,102982.58
2018-12-30T22:06:12.813Z,102980.20
2018-12-30T22:09:02.480Z,103008.81
2018-12-30T22:11:44.360Z,102986.21
2018-12-30T22:17:36.784Z,102989.71
2018-12-30T22:20:26.148Z,103013.44
2018-12-30T22:23:08.694Z,102987.50
2018-12-30T22:29:01.071Z,103012.98
2018-12-30T22:31:50.469Z,103019.09
2018-12-30T22:34:34.195Z,103018.19
2018-12-30T22:37:17.412Z,102996.03
2018-12-30T22:40:27.702Z,103025.17
2018-12-30T22:43:10.148Z,103011.52
2018-12-30T22:48:47.011Z,103001.55
2018-12-30T22:54:39.040Z,102992.69
2018-12-30T22:57:21.261Z,102988.45
2018-12-30T23:03:23.544Z,102991.34
2018-12-30T23:09:02.844Z,103011.71
2018-12-30T23:14:46.838Z,102995.59
2018-12-30T23:17:36.490Z,102995.34
2018-12-30T23:20:18.834Z,102971.09
2018-12-30T23:23:08.481Z,103003.10
2018-12-30T23:25:50.237Z,103002.52
2018-12-30T23:28:40.213Z,102974.95
2018-12-30T23:31:22.156Z,103001.73
2018-12-30T23:34:11.904Z,102988.37
2018-12-30T23:36:54.335Z,103005.80
2018-12-30T23:39:36.245Z,102983.86
2018-12-30T23:45:08.259Z,102982.10
2018-12-30T23:47:57.594Z,102977.18
2018-12-30T23:50:39.237Z,102990.12
2018-12-30T23:53:28.947Z,103006.41
2018-12-30T23:56:11.007Z,102979.19
2018-12-30T23:59:00.714Z,103013.88
